Bei Facebook empfehlenBei Twitter postenGoogle plusPinterest

Das Wetter im Erzgebirge am 21.07.2015

Wetter und Klima am 21.07.2015 Holzhau im Erzgebirge (630m ü.NN)
Letzte gemessene Temperatur und Uhrzeit der Messung23:45:00 Uhr16.60 °C
Temperatur (Maximum / Höchstwert) und Uhrzeit der Messung16:15:00 Uhr29.30 °C
Temperatur (Minimum / Tiefstwert) und Uhrzeit der Messung00:30:0014.90 °C
Errechneter Absolutwert der Temperaturschwankungen zwischen Tmin und Tmax des Tages14.40 K
Errechnete Tagesmitteltemperatur21.87813 °C
Gesamt - Niederschlag des Tages (in flüssiger Form)3.11 Liter / m²
Luftdruck (Maximum / Höchstwert) und Zeitpunkt der Messung23:00:00 Uhr1015.90 hPa
Luftdruck (Minimum / Tiefstwert) und Zeitpunkt der Messung04:15:00 Uhr1013.90 hPa
Errechneter Absolutwert der Luftdruckschwankungen des Tages2.00 hPa
Höchste gemessene Windgeschwindigkeit und Uhrzeit der Messung18:15:00 Uhr10.08 km/h
Errechnete Windhäufigkeit in Relation zu den Messwerten des Tages14.58333 %
Niedrigste Windkühle (Windchill) und Zeitpunkt der Messung00:30:00 Uhr14.90 °C
Taupunkt (Maximum / Höchstwert) und Uhrzeit der Messung07:45:00 Uhr20.30 °C
Taupunkt (Minimum / Tiefstwert) und Uhrzeit der Messung00:30:0012.90 °C
Anzahl der automatisch eingelesenen Messwerte 96

Detaillierte Wetter- und Klima- Messwerte für den 21.07.2015 in Holzhau im Erzgebirge (630m ü.NN)
ZeitTemperaturLuftdruckRel. LuftfeuchteWindWindrichtungWindchillTaupunktNiederschlag l/m²
23:45:0016.60 °C1015.80 hPa82.00 %13.50 °C3.11
23:30:0016.80 °C1015.70 hPa82.00 %13.70 °C3.11
23:15:0017.10 °C1015.80 hPa82.00 %14.00 °C3.11
23:00:0017.10 °C1015.90 hPa81.00 %13.80 °C3.11
22:45:0017.40 °C1015.80 hPa80.00 %13.90 °C3.11
22:30:0017.60 °C1015.70 hPa79.00 %13.90 °C3.11
22:15:0017.80 °C1015.60 hPa77.00 %13.70 °C3.11
22:00:0018.40 °C1015.70 hPa75.00 %13.90 °C3.11
21:45:0019.00 °C1015.50 hPa74.00 %14.30 °C3.11
21:30:0019.90 °C1015.60 hPa71.00 %14.50 °C3.11
21:15:0021.00 °C1015.30 hPa68.00 %14.90 °C3.11
21:00:0022.10 °C1015.10 hPa65.00 %15.20 °C3.11
20:45:0023.40 °C1015.00 hPa62.00 %15.70 °C3.11
20:30:0024.30 °C1014.80 hPa59.00 %15.80 °C3.11
20:15:0024.90 °C1014.90 hPa58.00 %16.10 °C3.11
20:00:0025.60 °C1014.90 hPa56.00 %16.20 °C3.11
19:45:0026.10 °C1014.70 hPa55.00 %16.40 °C3.11
19:30:0026.30 °C1014.80 hPa53.00 %16.00 °C3.11
19:15:0026.90 °C1014.70 hPa52.00 %4.68 km/hW26.90 °C16.20 °C3.11
19:00:0027.30 °C1014.60 hPa53.00 %16.90 °C3.11
18:45:0027.50 °C1014.70 hPa52.00 %16.80 °C3.11
18:30:0027.40 °C1014.70 hPa53.00 %3.60 km/hW27.40 °C17.00 °C3.11
18:15:0027.40 °C1014.60 hPa53.00 %10.08 km/hSW29.40 °C17.00 °C3.11
18:00:0027.90 °C1014.60 hPa52.00 %17.10 °C3.11
17:45:0027.90 °C1014.70 hPa52.00 %17.10 °C3.11
17:30:0027.80 °C1014.70 hPa51.00 %16.70 °C3.11
17:15:0028.10 °C1014.60 hPa50.00 %16.70 °C3.11
17:00:0028.40 °C1014.80 hPa49.00 %16.70 °C3.11
16:45:0028.50 °C1014.80 hPa49.00 %1.80 km/hW28.50 °C16.70 °C3.11
16:30:0028.80 °C1014.80 hPa49.00 %3.60 km/hNNW28.80 °C17.00 °C3.11
16:15:0029.30 °C1014.60 hPa49.00 %17.50 °C3.11
16:00:0029.00 °C1014.80 hPa51.00 %3.96 km/hWNW29.00 °C17.80 °C3.11
15:45:0028.90 °C1014.80 hPa50.00 %17.40 °C3.11
15:30:0028.60 °C1014.90 hPa51.00 %17.50 °C3.11
15:15:0028.20 °C1014.90 hPa53.00 %17.70 °C3.11
15:00:0027.80 °C1014.90 hPa55.00 %6.48 km/hWNW29.90 °C17.90 °C3.11
14:45:0027.60 °C1015.00 hPa53.00 %10.08 km/hSSW29.70 °C17.20 °C3.11
14:30:0028.80 °C1014.80 hPa54.00 %18.60 °C3.11
14:15:0028.40 °C1014.90 hPa54.00 %6.12 km/hWNW30.60 °C18.20 °C3.11
14:00:0027.70 °C1015.00 hPa57.00 %18.40 °C3.11
13:45:0027.20 °C1015.00 hPa59.00 %18.50 °C3.11
13:30:0026.50 °C1015.00 hPa62.00 %18.60 °C3.11
13:15:0026.30 °C1015.00 hPa61.00 %5.76 km/hWNW28.20 °C18.20 °C3.11
13:00:0026.40 °C1015.00 hPa63.00 %18.80 °C3.11
12:45:0026.10 °C1014.90 hPa65.00 %19.00 °C3.11
12:30:0025.50 °C1015.00 hPa65.00 %18.40 °C3.11
12:15:0025.60 °C1014.80 hPa68.00 %5.40 km/hNW27.40 °C19.30 °C3.11
12:00:0024.80 °C1014.90 hPa70.00 %19.00 °C3.11
11:45:0024.10 °C1015.00 hPa71.00 %18.50 °C3.11
11:30:0025.50 °C1015.10 hPa66.00 %18.70 °C3.11
11:15:0025.30 °C1014.60 hPa69.00 %3.96 km/hWSW25.30 °C19.20 °C3.11
11:00:0024.90 °C1014.80 hPa68.00 %18.60 °C3.11
10:45:0024.40 °C1014.70 hPa71.00 %6.84 km/hWNW26.00 °C18.80 °C3.11
10:30:0023.80 °C1014.70 hPa75.00 %19.10 °C3.11
10:15:0024.10 °C1014.80 hPa73.00 %6.12 km/hSSW25.70 °C19.00 °C3.11
10:00:0024.00 °C1014.60 hPa74.00 %19.10 °C3.11
09:45:0023.30 °C1014.60 hPa79.00 %19.50 °C3.11
09:30:0023.30 °C1014.40 hPa80.00 %19.70 °C3.11
09:15:0023.30 °C1014.50 hPa80.00 %19.70 °C3.11
09:00:0022.60 °C1014.40 hPa80.00 %19.00 °C3.11
08:45:0022.90 °C1014.60 hPa80.00 %19.30 °C3.11
08:30:0022.80 °C1014.60 hPa81.00 %19.40 °C3.11
08:15:0022.90 °C1014.50 hPa82.00 %19.70 °C3.11
08:00:0023.10 °C1014.50 hPa83.00 %20.10 °C3.11
07:45:0022.40 °C1014.40 hPa88.00 %20.30 °C3.11
07:30:0021.10 °C1014.40 hPa91.00 %19.60 °C3.11
07:15:0018.30 °C1014.50 hPa92.00 %17.00 °C3.11
07:00:0017.90 °C1014.40 hPa92.00 %16.60 °C3.11
06:45:0017.60 °C1014.40 hPa92.00 %16.30 °C3.11
06:30:0017.10 °C1014.40 hPa92.00 %15.80 °C3.11
06:15:0016.80 °C1014.30 hPa91.00 %15.30 °C3.11
06:00:0016.90 °C1014.30 hPa91.00 %15.40 °C3.11
05:45:0016.90 °C1014.30 hPa91.00 %15.40 °C3.11
05:30:0016.80 °C1014.40 hPa91.00 %15.30 °C2.08
05:15:0016.60 °C1014.30 hPa91.00 %15.10 °C1.56
05:00:0016.40 °C1014.20 hPa91.00 %14.90 °C1.04
04:45:0016.00 °C1014.50 hPa91.00 %14.50 °C0.52
04:30:0015.90 °C1014.10 hPa90.00 %14.30 °C 
04:15:0015.60 °C1013.90 hPa90.00 %14.00 °C 
04:00:0015.30 °C1014.00 hPa90.00 %13.70 °C 
03:45:0015.10 °C1014.10 hPa90.00 %13.50 °C 
03:30:0015.20 °C1014.00 hPa89.00 %13.40 °C 
03:15:0015.40 °C1014.10 hPa89.00 %13.60 °C 
03:00:0015.40 °C1014.30 hPa89.00 %13.60 °C 
02:45:0015.30 °C1014.30 hPa89.00 %13.50 °C 
02:30:0015.30 °C1014.30 hPa88.00 %13.30 °C 
02:15:0015.40 °C1014.30 hPa89.00 %13.60 °C 
02:00:0015.50 °C1014.30 hPa88.00 %13.50 °C 
01:45:0015.50 °C1014.40 hPa88.00 %13.50 °C 
01:30:0015.60 °C1014.60 hPa89.00 %13.80 °C 
01:15:0015.50 °C1014.70 hPa89.00 %13.70 °C 
01:00:0015.30 °C1014.60 hPa89.00 %13.50 °C 
00:45:0015.10 °C1014.60 hPa89.00 %13.30 °C 
00:30:0014.90 °C1014.60 hPa88.00 %12.90 °C 
00:15:0015.00 °C1014.70 hPa89.00 %13.20 °C 
00:00:0014.90 °C1014.50 hPa89.00 %13.10 °C 

Permanenter Link zu dieser Seite: Wetter im Erzgebirge am 21.07.2015
Performance-Info: Die Erstellung der Seite / Statistik(en) / Tabelle(n) erforderte 5 Datenbankserver-Abfrage(n) und dauerte 102 Millisekunden. (Dieser Messwert ist von der Gesamt-Auslastung des Servers abhängig.)
Erzgebirge - Wetter | Erzgebirge - Wetter (Mobilgeräte) | Komplette Klimadatenbank